sensor_id;sensor_type;location;lat;lon;timestamp;pressure;altitude;pressure_sealevel;temperature;humidity
14393;BME280;7281;42.678;23.372;2022-08-18T00:02:16;94908.50;;;28.03;39.90
14393;BME280;7281;42.678;23.372;2022-08-18T00:04:44;94918.63;;;28.10;39.10
14393;BME280;7281;42.678;23.372;2022-08-18T00:07:31;94910.09;;;28.04;39.49
14393;BME280;7281;42.678;23.372;2022-08-18T00:10:00;94908.06;;;28.27;38.58
14393;BME280;7281;42.678;23.372;2022-08-18T00:12:39;94909.44;;;28.14;38.59
14393;BME280;7281;42.678;23.372;2022-08-18T00:15:10;94911.00;;;28.15;38.55
14393;BME280;7281;42.678;23.372;2022-08-18T00:17:38;94914.81;;;28.14;38.63
14393;BME280;7281;42.678;23.372;2022-08-18T00:20:09;94902.81;;;28.08;38.43
14393;BME280;7281;42.678;23.372;2022-08-18T00:22:36;94903.69;;;27.89;38.90
14393;BME280;7281;42.678;23.372;2022-08-18T00:25:06;94915.22;;;28.16;38.31
14393;BME280;7281;42.678;23.372;2022-08-18T00:27:35;94899.22;;;27.97;38.84
14393;BME280;7281;42.678;23.372;2022-08-18T00:30:10;94913.47;;;28.01;38.77
14393;BME280;7281;42.678;23.372;2022-08-18T00:32:44;94913.22;;;28.10;38.51
14393;BME280;7281;42.678;23.372;2022-08-18T00:35:35;94915.38;;;27.97;38.52
14393;BME280;7281;42.678;23.372;2022-08-18T00:38:06;94903.31;;;27.91;38.89
14393;BME280;7281;42.678;23.372;2022-08-18T00:40:50;94917.22;;;27.67;39.63
14393;BME280;7281;42.678;23.372;2022-08-18T00:45:58;94920.56;;;27.86;39.04
14393;BME280;7281;42.678;23.372;2022-08-18T00:48:28;94915.38;;;27.97;38.92
14393;BME280;7281;42.678;23.372;2022-08-18T00:50:59;94914.97;;;27.95;38.98
14393;BME280;7281;42.678;23.372;2022-08-18T00:53:37;94929.22;;;27.73;39.69
14393;BME280;7281;42.678;23.372;2022-08-18T00:56:10;94937.22;;;27.66;39.89
14393;BME280;7281;42.678;23.372;2022-08-18T00:59:06;94930.06;;;27.51;40.15
14393;BME280;7281;42.678;23.372;2022-08-18T01:01:35;94941.59;;;27.29;40.38
14393;BME280;7281;42.678;23.372;2022-08-18T01:04:07;94938.53;;;27.53;39.66
14393;BME280;7281;42.678;23.372;2022-08-18T01:06:56;94938.50;;;27.49;40.09
14393;BME280;7281;42.678;23.372;2022-08-18T01:09:24;94931.59;;;27.52;39.93
14393;BME280;7281;42.678;23.372;2022-08-18T01:11:51;94927.63;;;27.42;40.31
14393;BME280;7281;42.678;23.372;2022-08-18T01:14:19;94935.59;;;27.35;40.38
14393;BME280;7281;42.678;23.372;2022-08-18T01:16:47;94929.31;;;27.54;39.83
14393;BME280;7281;42.678;23.372;2022-08-18T01:19:33;94937.59;;;27.42;40.04
14393;BME280;7281;42.678;23.372;2022-08-18T01:22:35;94938.03;;;27.25;40.19
14393;BME280;7281;42.678;23.372;2022-08-18T01:25:05;94941.53;;;26.64;41.17
14393;BME280;7281;42.678;23.372;2022-08-18T01:27:52;94933.50;;;26.83;41.22
14393;BME280;7281;42.678;23.372;2022-08-18T01:30:26;94929.56;;;27.23;40.73
14393;BME280;7281;42.678;23.372;2022-08-18T01:32:54;94915.72;;;27.21;40.63
14393;BME280;7281;42.678;23.372;2022-08-18T01:35:23;94932.97;;;27.20;40.67
14393;BME280;7281;42.678;23.372;2022-08-18T01:37:54;94927.78;;;27.08;40.80
14393;BME280;7281;42.678;23.372;2022-08-18T01:40:22;94925.16;;;27.11;40.87
14393;BME280;7281;42.678;23.372;2022-08-18T01:43:09;94928.00;;;26.76;40.95
14393;BME280;7281;42.678;23.372;2022-08-18T01:45:37;94924.47;;;26.72;40.93
14393;BME280;7281;42.678;23.372;2022-08-18T01:48:04;94921.13;;;26.60;41.12
14393;BME280;7281;42.678;23.372;2022-08-18T01:50:32;94913.16;;;26.25;42.29
14393;BME280;7281;42.678;23.372;2022-08-18T01:53:01;94913.78;;;26.57;41.79
14393;BME280;7281;42.678;23.372;2022-08-18T01:55:33;94917.38;;;26.45;41.83
14393;BME280;7281;42.678;23.372;2022-08-18T01:58:01;94909.59;;;26.59;41.76
14393;BME280;7281;42.678;23.372;2022-08-18T02:00:28;94923.44;;;26.61;41.32
14393;BME280;7281;42.678;23.372;2022-08-18T02:02:55;94913.69;;;26.72;41.39
14393;BME280;7281;42.678;23.372;2022-08-18T02:05:35;94906.69;;;26.49;41.93
14393;BME280;7281;42.678;23.372;2022-08-18T02:08:03;94913.69;;;26.53;41.50
14393;BME280;7281;42.678;23.372;2022-08-18T02:10:32;94905.94;;;26.29;41.84
14393;BME280;7281;42.678;23.372;2022-08-18T02:12:59;94910.09;;;26.27;42.14
14393;BME280;7281;42.678;23.372;2022-08-18T02:15:26;94930.09;;;26.48;41.82
14393;BME280;7281;42.678;23.372;2022-08-18T02:17:53;94926.66;;;25.44;44.02
14393;BME280;7281;42.678;23.372;2022-08-18T02:20:20;94920.25;;;25.33;44.63
14393;BME280;7281;42.678;23.372;2022-08-18T02:22:48;94935.06;;;25.92;43.51
14393;BME280;7281;42.678;23.372;2022-08-18T02:25:17;94935.34;;;26.22;43.03
14393;BME280;7281;42.678;23.372;2022-08-18T02:27:45;94926.72;;;26.51;42.49
14393;BME280;7281;42.678;23.372;2022-08-18T02:30:15;94923.66;;;26.72;42.18
14393;BME280;7281;42.678;23.372;2022-08-18T02:32:42;94930.78;;;26.64;42.07
14393;BME280;7281;42.678;23.372;2022-08-18T02:35:10;94917.53;;;26.52;42.00
14393;BME280;7281;42.678;23.372;2022-08-18T02:37:41;94926.13;;;26.61;42.19
14393;BME280;7281;42.678;23.372;2022-08-18T02:40:09;94910.44;;;26.63;42.19
14393;BME280;7281;42.678;23.372;2022-08-18T02:42:44;94902.19;;;26.53;42.31
14393;BME280;7281;42.678;23.372;2022-08-18T02:45:13;94911.09;;;26.57;42.69
14393;BME280;7281;42.678;23.372;2022-08-18T02:47:40;94917.94;;;26.35;42.87
14393;BME280;7281;42.678;23.372;2022-08-18T02:50:11;94918.38;;;26.37;43.05
14393;BME280;7281;42.678;23.372;2022-08-18T02:52:38;94932.44;;;26.50;42.61
14393;BME280;7281;42.678;23.372;2022-08-18T02:55:06;94928.13;;;26.45;42.72
14393;BME280;7281;42.678;23.372;2022-08-18T02:57:34;94929.41;;;26.51;42.55
14393;BME280;7281;42.678;23.372;2022-08-18T03:00:03;94927.06;;;26.31;42.88
14393;BME280;7281;42.678;23.372;2022-08-18T03:02:30;94933.38;;;26.03;43.26
14393;BME280;7281;42.678;23.372;2022-08-18T03:04:57;94938.94;;;26.11;43.15
14393;BME280;7281;42.678;23.372;2022-08-18T03:07:24;94934.59;;;26.06;43.10
14393;BME280;7281;42.678;23.372;2022-08-18T03:09:51;94933.13;;;26.09;42.84
14393;BME280;7281;42.678;23.372;2022-08-18T03:12:18;94935.66;;;26.01;43.16
14393;BME280;7281;42.678;23.372;2022-08-18T03:14:45;94933.31;;;26.00;42.92
14393;BME280;7281;42.678;23.372;2022-08-18T03:17:12;94937.53;;;25.82;43.19
14393;BME280;7281;42.678;23.372;2022-08-18T03:19:41;94941.69;;;25.79;43.42
14393;BME280;7281;42.678;23.372;2022-08-18T03:22:13;94935.50;;;25.94;43.13
14393;BME280;7281;42.678;23.372;2022-08-18T03:24:55;94940.38;;;25.73;43.55
14393;BME280;7281;42.678;23.372;2022-08-18T03:27:22;94935.50;;;25.60;43.75
14393;BME280;7281;42.678;23.372;2022-08-18T03:29:49;94950.28;;;25.54;43.83
14393;BME280;7281;42.678;23.372;2022-08-18T03:32:16;94953.59;;;25.47;44.11
14393;BME280;7281;42.678;23.372;2022-08-18T03:34:44;94948.28;;;25.20;44.54
14393;BME280;7281;42.678;23.372;2022-08-18T03:37:11;94948.97;;;25.48;43.98
14393;BME280;7281;42.678;23.372;2022-08-18T03:39:39;94948.31;;;25.51;44.16
14393;BME280;7281;42.678;23.372;2022-08-18T03:42:06;94949.16;;;25.55;44.24
14393;BME280;7281;42.678;23.372;2022-08-18T03:44:34;94955.75;;;25.42;44.21
14393;BME280;7281;42.678;23.372;2022-08-18T03:47:08;94946.16;;;25.56;44.31
14393;BME280;7281;42.678;23.372;2022-08-18T03:49:36;94948.13;;;25.44;44.35
14393;BME280;7281;42.678;23.372;2022-08-18T03:52:07;94947.44;;;25.47;44.24
14393;BME280;7281;42.678;23.372;2022-08-18T03:54:34;94956.69;;;25.18;45.14
14393;BME280;7281;42.678;23.372;2022-08-18T03:57:01;94951.31;;;25.34;44.61
14393;BME280;7281;42.678;23.372;2022-08-18T03:59:29;94950.19;;;25.66;43.94
14393;BME280;7281;42.678;23.372;2022-08-18T04:01:57;94956.69;;;25.49;44.48
14393;BME280;7281;42.678;23.372;2022-08-18T04:04:26;94952.09;;;25.50;44.19
14393;BME280;7281;42.678;23.372;2022-08-18T04:07:04;94955.88;;;25.80;43.85
14393;BME280;7281;42.678;23.372;2022-08-18T04:09:32;94960.75;;;25.59;43.96
14393;BME280;7281;42.678;23.372;2022-08-18T04:12:07;94960.47;;;25.64;43.92
14393;BME280;7281;42.678;23.372;2022-08-18T04:14:44;94970.00;;;25.46;44.49
14393;BME280;7281;42.678;23.372;2022-08-18T04:17:17;94967.41;;;25.49;43.97
14393;BME280;7281;42.678;23.372;2022-08-18T04:19:54;94968.63;;;25.52;44.56
14393;BME280;7281;42.678;23.372;2022-08-18T04:22:22;94966.81;;;25.56;44.43
14393;BME280;7281;42.678;23.372;2022-08-18T04:24:50;94965.59;;;25.69;44.09
14393;BME280;7281;42.678;23.372;2022-08-18T04:27:19;94968.28;;;25.53;43.84
14393;BME280;7281;42.678;23.372;2022-08-18T04:29:46;94976.69;;;25.52;44.27
14393;BME280;7281;42.678;23.372;2022-08-18T04:32:13;94973.56;;;25.50;43.98
14393;BME280;7281;42.678;23.372;2022-08-18T04:34:40;94981.88;;;25.76;43.96
14393;BME280;7281;42.678;23.372;2022-08-18T04:37:08;94982.72;;;25.80;43.78
14393;BME280;7281;42.678;23.372;2022-08-18T04:39:35;94985.84;;;25.82;43.76
14393;BME280;7281;42.678;23.372;2022-08-18T04:42:04;94983.69;;;25.72;43.82
14393;BME280;7281;42.678;23.372;2022-08-18T04:44:32;94983.34;;;25.73;43.73
14393;BME280;7281;42.678;23.372;2022-08-18T04:47:00;94975.63;;;25.72;43.97
14393;BME280;7281;42.678;23.372;2022-08-18T04:49:27;94978.59;;;25.67;44.35
14393;BME280;7281;42.678;23.372;2022-08-18T04:51:56;94986.75;;;25.89;43.90
14393;BME280;7281;42.678;23.372;2022-08-18T04:55:03;94988.94;;;25.84;44.37
14393;BME280;7281;42.678;23.372;2022-08-18T04:57:30;94986.78;;;26.05;44.12
14393;BME280;7281;42.678;23.372;2022-08-18T05:00:19;94992.41;;;26.35;43.66
14393;BME280;7281;42.678;23.372;2022-08-18T05:03:04;94994.91;;;26.09;44.19
14393;BME280;7281;42.678;23.372;2022-08-18T05:05:31;94999.31;;;26.01;44.41
14393;BME280;7281;42.678;23.372;2022-08-18T05:07:58;94996.03;;;26.08;44.24
14393;BME280;7281;42.678;23.372;2022-08-18T05:10:25;94998.09;;;26.14;44.14
14393;BME280;7281;42.678;23.372;2022-08-18T05:12:52;94992.53;;;26.23;44.07
14393;BME280;7281;42.678;23.372;2022-08-18T05:15:19;94996.06;;;26.27;44.12
14393;BME280;7281;42.678;23.372;2022-08-18T05:17:46;94991.63;;;26.34;44.04
14393;BME280;7281;42.678;23.372;2022-08-18T05:20:16;94993.59;;;26.37;44.25
14393;BME280;7281;42.678;23.372;2022-08-18T05:22:43;94996.09;;;26.65;44.03
14393;BME280;7281;42.678;23.372;2022-08-18T05:25:11;94993.63;;;26.56;44.35
14393;BME280;7281;42.678;23.372;2022-08-18T05:27:40;95001.03;;;26.44;44.22
14393;BME280;7281;42.678;23.372;2022-08-18T05:30:09;95001.56;;;26.68;43.71
14393;BME280;7281;42.678;23.372;2022-08-18T05:32:42;95007.50;;;26.96;43.13
14393;BME280;7281;42.678;23.372;2022-08-18T05:35:22;95006.06;;;26.64;43.60
14393;BME280;7281;42.678;23.372;2022-08-18T05:37:59;95005.84;;;26.54;43.65
14393;BME280;7281;42.678;23.372;2022-08-18T05:40:32;95005.47;;;26.71;43.43
14393;BME280;7281;42.678;23.372;2022-08-18T05:43:00;95016.84;;;26.83;42.90
14393;BME280;7281;42.678;23.372;2022-08-18T05:45:29;94992.66;;;26.83;42.90
14393;BME280;7281;42.678;23.372;2022-08-18T05:47:57;95004.38;;;26.56;44.95
14393;BME280;7281;42.678;23.372;2022-08-18T05:50:27;95010.31;;;27.03;43.24
14393;BME280;7281;42.678;23.372;2022-08-18T05:52:56;95012.16;;;26.61;44.55
14393;BME280;7281;42.678;23.372;2022-08-18T05:55:30;95003.47;;;26.87;43.80
14393;BME280;7281;42.678;23.372;2022-08-18T05:58:24;95009.31;;;27.31;42.87
14393;BME280;7281;42.678;23.372;2022-08-18T06:01:21;95007.41;;;27.31;42.41
14393;BME280;7281;42.678;23.372;2022-08-18T06:04:01;95003.09;;;27.08;43.09
14393;BME280;7281;42.678;23.372;2022-08-18T06:06:32;95006.03;;;27.41;42.42
14393;BME280;7281;42.678;23.372;2022-08-18T06:11:33;95007.31;;;27.28;41.76
14393;BME280;7281;42.678;23.372;2022-08-18T06:14:00;95003.88;;;27.50;41.54
14393;BME280;7281;42.678;23.372;2022-08-18T06:19:56;95009.78;;;27.36;42.27
14393;BME280;7281;42.678;23.372;2022-08-18T06:22:38;94996.44;;;27.66;41.39
14393;BME280;7281;42.678;23.372;2022-08-18T06:28:43;95002.06;;;27.35;43.58
14393;BME280;7281;42.678;23.372;2022-08-18T06:34:14;95000.19;;;27.61;41.79
14393;BME280;7281;42.678;23.372;2022-08-18T06:39:31;95013.81;;;27.27;41.91
14393;BME280;7281;42.678;23.372;2022-08-18T06:42:00;94994.28;;;27.75;40.89
14393;BME280;7281;42.678;23.372;2022-08-18T06:49:58;94994.28;;;28.01;40.91
14393;BME280;7281;42.678;23.372;2022-08-18T06:52:34;94987.19;;;28.16;40.72
14393;BME280;7281;42.678;23.372;2022-08-18T06:55:09;94986.38;;;28.67;40.04
14393;BME280;7281;42.678;23.372;2022-08-18T06:57:52;94984.44;;;28.38;41.71
14393;BME280;7281;42.678;23.372;2022-08-18T07:00:26;94982.34;;;28.87;40.92
14393;BME280;7281;42.678;23.372;2022-08-18T07:05:32;94965.06;;;28.92;40.13
14393;BME280;7281;42.678;23.372;2022-08-18T07:08:16;94962.41;;;29.32;40.21
14393;BME280;7281;42.678;23.372;2022-08-18T07:10:46;94964.97;;;29.62;38.91
14393;BME280;7281;42.678;23.372;2022-08-18T07:13:26;94965.88;;;29.76;38.11
14393;BME280;7281;42.678;23.372;2022-08-18T07:16:15;94957.50;;;29.92;37.92
14393;BME280;7281;42.678;23.372;2022-08-18T07:19:10;94957.22;;;30.11;37.17
14393;BME280;7281;42.678;23.372;2022-08-18T07:21:39;94952.41;;;30.41;36.88
14393;BME280;7281;42.678;23.372;2022-08-18T07:24:20;94950.50;;;30.45;38.06
14393;BME280;7281;42.678;23.372;2022-08-18T07:29:34;94948.34;;;30.86;35.86
14393;BME280;7281;42.678;23.372;2022-08-18T07:32:12;94949.50;;;30.81;36.04
14393;BME280;7281;42.678;23.372;2022-08-18T07:34:52;94943.31;;;30.92;35.48
14393;BME280;7281;42.678;23.372;2022-08-18T07:37:28;94947.13;;;30.76;35.63
14393;BME280;7281;42.678;23.372;2022-08-18T07:40:08;94955.72;;;31.00;35.18
14393;BME280;7281;42.678;23.372;2022-08-18T07:43:02;94945.69;;;31.11;35.09
14393;BME280;7281;42.678;23.372;2022-08-18T07:45:35;94961.19;;;31.31;34.32
14393;BME280;7281;42.678;23.372;2022-08-18T07:48:10;94951.13;;;31.25;34.06
14393;BME280;7281;42.678;23.372;2022-08-18T07:51:21;94948.44;;;31.81;34.11
14393;BME280;7281;42.678;23.372;2022-08-18T07:54:09;94944.97;;;31.70;34.11
14393;BME280;7281;42.678;23.372;2022-08-18T07:57:12;94951.97;;;31.64;33.29
14393;BME280;7281;42.678;23.372;2022-08-18T08:00:04;94948.72;;;32.46;33.92
14393;BME280;7281;42.678;23.372;2022-08-18T08:02:47;94945.63;;;32.51;33.30
14393;BME280;7281;42.678;23.372;2022-08-18T08:11:09;94944.03;;;32.57;32.21
14393;BME280;7281;42.678;23.372;2022-08-18T08:13:52;94940.13;;;32.65;31.51
14393;BME280;7281;42.678;23.372;2022-08-18T08:16:36;94938.25;;;32.55;31.94
14393;BME280;7281;42.678;23.372;2022-08-18T08:22:23;94943.16;;;32.81;31.35
14393;BME280;7281;42.678;23.372;2022-08-18T08:25:07;94931.03;;;33.07;30.64
14393;BME280;7281;42.678;23.372;2022-08-18T08:30:30;94933.66;;;33.18;30.23
14393;BME280;7281;42.678;23.372;2022-08-18T08:33:16;94935.72;;;33.58;30.07
14393;BME280;7281;42.678;23.372;2022-08-18T08:36:28;94942.06;;;33.41;29.35
14393;BME280;7281;42.678;23.372;2022-08-18T08:39:01;94943.97;;;32.75;30.26
14393;BME280;7281;42.678;23.372;2022-08-18T08:41:35;94927.41;;;33.28;29.68
14393;BME280;7281;42.678;23.372;2022-08-18T08:46:46;94915.66;;;33.38;29.36
14393;BME280;7281;42.678;23.372;2022-08-18T08:49:22;94936.59;;;33.48;29.46
14393;BME280;7281;42.678;23.372;2022-08-18T08:51:59;94932.22;;;34.05;28.77
14393;BME280;7281;42.678;23.372;2022-08-18T08:57:01;94929.78;;;34.14;29.21
14393;BME280;7281;42.678;23.372;2022-08-18T08:59:29;94928.44;;;34.66;28.95
14393;BME280;7281;42.678;23.372;2022-08-18T09:05:08;94921.63;;;34.51;27.55
14393;BME280;7281;42.678;23.372;2022-08-18T09:08:02;94925.13;;;34.82;27.33
14393;BME280;7281;42.678;23.372;2022-08-18T09:10:44;94925.16;;;34.79;27.18
14393;BME280;7281;42.678;23.372;2022-08-18T09:29:45;94898.41;;;34.73;25.86
14393;BME280;7281;42.678;23.372;2022-08-18T09:38:08;94895.69;;;34.73;26.21
14393;BME280;7281;42.678;23.372;2022-08-18T09:41:07;94889.25;;;35.17;25.48
14393;BME280;7281;42.678;23.372;2022-08-18T10:01:31;94868.00;;;35.55;25.29
14393;BME280;7281;42.678;23.372;2022-08-18T10:06:43;94865.53;;;34.88;25.31
14393;BME280;7281;42.678;23.372;2022-08-18T10:34:52;94842.19;;;35.63;23.84
14393;BME280;7281;42.678;23.372;2022-08-18T10:42:47;94832.75;;;36.49;23.52
14393;BME280;7281;42.678;23.372;2022-08-18T10:45:27;94833.53;;;36.86;23.06
14393;BME280;7281;42.678;23.372;2022-08-18T10:51:02;94825.00;;;37.16;23.10
14393;BME280;7281;42.678;23.372;2022-08-18T10:54:12;94819.38;;;36.91;22.86
14393;BME280;7281;42.678;23.372;2022-08-18T10:56:50;94828.34;;;36.72;22.91
14393;BME280;7281;42.678;23.372;2022-08-18T11:04:56;94823.72;;;36.88;25.06
14393;BME280;7281;42.678;23.372;2022-08-18T11:07:28;94821.78;;;36.69;22.05
14393;BME280;7281;42.678;23.372;2022-08-18T11:10:00;94812.75;;;36.72;21.94
14393;BME280;7281;42.678;23.372;2022-08-18T11:21:21;94805.75;;;37.39;20.62
14393;BME280;7281;42.678;23.372;2022-08-18T11:24:15;94807.75;;;36.87;21.12
14393;BME280;7281;42.678;23.372;2022-08-18T11:26:47;94805.69;;;37.23;20.88
14393;BME280;7281;42.678;23.372;2022-08-18T11:29:33;94806.78;;;37.57;21.74
14393;BME280;7281;42.678;23.372;2022-08-18T11:32:08;94797.72;;;38.05;21.64
14393;BME280;7281;42.678;23.372;2022-08-18T11:37:33;94806.34;;;38.32;21.64
14393;BME280;7281;42.678;23.372;2022-08-18T11:45:56;94801.88;;;37.97;20.91
14393;BME280;7281;42.678;23.372;2022-08-18T11:48:44;94800.91;;;38.16;20.49
14393;BME280;7281;42.678;23.372;2022-08-18T11:51:29;94792.38;;;38.56;19.88
14393;BME280;7281;42.678;23.372;2022-08-18T11:54:03;94785.72;;;39.07;20.63
14393;BME280;7281;42.678;23.372;2022-08-18T11:56:44;94787.13;;;38.99;21.08
14393;BME280;7281;42.678;23.372;2022-08-18T12:02:20;94783.72;;;39.07;20.52
14393;BME280;7281;42.678;23.372;2022-08-18T12:04:52;94781.56;;;38.65;19.47
14393;BME280;7281;42.678;23.372;2022-08-18T12:07:49;94777.47;;;38.82;19.86
14393;BME280;7281;42.678;23.372;2022-08-18T12:10:36;94775.97;;;38.81;19.74
14393;BME280;7281;42.678;23.372;2022-08-18T12:13:03;94771.06;;;39.35;19.76
14393;BME280;7281;42.678;23.372;2022-08-18T12:15:34;94769.59;;;39.09;19.49
14393;BME280;7281;42.678;23.372;2022-08-18T12:18:15;94768.38;;;38.97;18.40
14393;BME280;7281;42.678;23.372;2022-08-18T12:20:57;94765.81;;;39.28;18.55
14393;BME280;7281;42.678;23.372;2022-08-18T12:23:29;94764.66;;;38.53;19.31
14393;BME280;7281;42.678;23.372;2022-08-18T12:26:14;94755.66;;;38.28;19.30
14393;BME280;7281;42.678;23.372;2022-08-18T12:29:01;94764.31;;;37.69;21.25
14393;BME280;7281;42.678;23.372;2022-08-18T12:31:28;94773.78;;;37.81;19.52
14393;BME280;7281;42.678;23.372;2022-08-18T12:34:13;94757.88;;;38.04;19.44
14393;BME280;7281;42.678;23.372;2022-08-18T12:36:41;94760.06;;;38.09;19.65
14393;BME280;7281;42.678;23.372;2022-08-18T12:39:09;94763.47;;;38.67;20.42
14393;BME280;7281;42.678;23.372;2022-08-18T12:41:36;94754.59;;;38.88;19.83
14393;BME280;7281;42.678;23.372;2022-08-18T12:44:03;94758.66;;;39.09;19.62
14393;BME280;7281;42.678;23.372;2022-08-18T12:46:39;94757.97;;;38.80;20.77
14393;BME280;7281;42.678;23.372;2022-08-18T12:49:22;94754.81;;;39.06;20.88
14393;BME280;7281;42.678;23.372;2022-08-18T12:51:50;94755.88;;;39.21;21.08
14393;BME280;7281;42.678;23.372;2022-08-18T12:54:21;94759.94;;;39.17;19.86
14393;BME280;7281;42.678;23.372;2022-08-18T12:56:52;94755.78;;;39.46;18.67
14393;BME280;7281;42.678;23.372;2022-08-18T12:59:22;94756.75;;;40.08;18.70
14393;BME280;7281;42.678;23.372;2022-08-18T13:01:50;94750.94;;;40.06;19.49
14393;BME280;7281;42.678;23.372;2022-08-18T13:04:24;94747.78;;;39.52;18.95
14393;BME280;7281;42.678;23.372;2022-08-18T13:06:55;94742.25;;;39.86;19.38
14393;BME280;7281;42.678;23.372;2022-08-18T13:09:32;94738.28;;;39.66;19.49
14393;BME280;7281;42.678;23.372;2022-08-18T13:12:20;94739.38;;;39.68;19.02
14393;BME280;7281;42.678;23.372;2022-08-18T13:14:47;94740.75;;;38.41;19.14
14393;BME280;7281;42.678;23.372;2022-08-18T13:17:17;94729.94;;;37.84;19.46
14393;BME280;7281;42.678;23.372;2022-08-18T13:20:17;94736.84;;;38.68;19.35
14393;BME280;7281;42.678;23.372;2022-08-18T13:22:44;94733.66;;;39.07;19.21
14393;BME280;7281;42.678;23.372;2022-08-18T13:25:13;94727.94;;;39.14;18.78
14393;BME280;7281;42.678;23.372;2022-08-18T13:28:01;94711.56;;;39.23;18.56
14393;BME280;7281;42.678;23.372;2022-08-18T13:30:28;94722.94;;;39.68;18.33
14393;BME280;7281;42.678;23.372;2022-08-18T13:32:59;94726.50;;;39.99;18.32
14393;BME280;7281;42.678;23.372;2022-08-18T13:35:47;94730.66;;;39.48;18.04
14393;BME280;7281;42.678;23.372;2022-08-18T13:38:21;94723.44;;;39.97;18.84
14393;BME280;7281;42.678;23.372;2022-08-18T13:40:56;94718.09;;;40.24;18.03
14393;BME280;7281;42.678;23.372;2022-08-18T13:43:30;94698.59;;;40.31;18.46
14393;BME280;7281;42.678;23.372;2022-08-18T13:46:01;94700.75;;;40.58;18.08
14393;BME280;7281;42.678;23.372;2022-08-18T13:48:29;94708.66;;;41.14;18.40
14393;BME280;7281;42.678;23.372;2022-08-18T13:50:58;94718.81;;;39.51;18.12
14393;BME280;7281;42.678;23.372;2022-08-18T13:53:28;94714.97;;;39.27;18.69
14393;BME280;7281;42.678;23.372;2022-08-18T13:55:57;94715.53;;;39.99;18.53
14393;BME280;7281;42.678;23.372;2022-08-18T13:58:25;94711.94;;;39.68;18.27
14393;BME280;7281;42.678;23.372;2022-08-18T14:00:59;94714.34;;;38.98;18.64
14393;BME280;7281;42.678;23.372;2022-08-18T14:03:46;94704.63;;;39.65;18.24
14393;BME280;7281;42.678;23.372;2022-08-18T14:06:15;94702.78;;;40.05;18.31
14393;BME280;7281;42.678;23.372;2022-08-18T14:08:50;94704.97;;;40.19;18.35
14393;BME280;7281;42.678;23.372;2022-08-18T14:11:21;94701.66;;;41.04;18.13
14393;BME280;7281;42.678;23.372;2022-08-18T14:13:54;94709.34;;;40.38;17.58
14393;BME280;7281;42.678;23.372;2022-08-18T14:16:22;94693.69;;;40.48;17.51
14393;BME280;7281;42.678;23.372;2022-08-18T14:18:52;94689.94;;;40.73;18.00
14393;BME280;7281;42.678;23.372;2022-08-18T14:21:43;94694.81;;;40.29;17.33
14393;BME280;7281;42.678;23.372;2022-08-18T14:24:30;94698.84;;;40.15;17.04
14393;BME280;7281;42.678;23.372;2022-08-18T14:27:18;94689.09;;;40.14;18.19
14393;BME280;7281;42.678;23.372;2022-08-18T14:29:46;94695.84;;;39.36;18.06
14393;BME280;7281;42.678;23.372;2022-08-18T14:32:21;94695.09;;;39.57;18.41
14393;BME280;7281;42.678;23.372;2022-08-18T14:35:00;94696.66;;;40.01;19.06
14393;BME280;7281;42.678;23.372;2022-08-18T14:37:47;94683.97;;;40.25;19.01
14393;BME280;7281;42.678;23.372;2022-08-18T14:40:16;94684.13;;;40.62;18.74
14393;BME280;7281;42.678;23.372;2022-08-18T14:42:43;94681.69;;;40.64;18.66
14393;BME280;7281;42.678;23.372;2022-08-18T14:45:22;94679.22;;;40.26;18.82
14393;BME280;7281;42.678;23.372;2022-08-18T14:48:02;94686.41;;;39.80;18.17
14393;BME280;7281;42.678;23.372;2022-08-18T14:50:34;94688.59;;;39.64;18.22
14393;BME280;7281;42.678;23.372;2022-08-18T14:53:03;94695.84;;;39.36;18.71
14393;BME280;7281;42.678;23.372;2022-08-18T14:55:30;94686.69;;;39.73;18.69
14393;BME280;7281;42.678;23.372;2022-08-18T14:57:57;94701.34;;;39.79;19.15
14393;BME280;7281;42.678;23.372;2022-08-18T15:00:25;94703.91;;;39.52;18.65
14393;BME280;7281;42.678;23.372;2022-08-18T15:02:53;94695.16;;;39.88;18.91
14393;BME280;7281;42.678;23.372;2022-08-18T15:05:20;94697.28;;;39.62;18.99
14393;BME280;7281;42.678;23.372;2022-08-18T15:07:50;94682.19;;;39.88;19.58
14393;BME280;7281;42.678;23.372;2022-08-18T15:10:18;94684.13;;;39.79;18.97
14393;BME280;7281;42.678;23.372;2022-08-18T15:12:49;94685.41;;;40.08;18.69
14393;BME280;7281;42.678;23.372;2022-08-18T15:15:17;94685.28;;;39.90;18.29
14393;BME280;7281;42.678;23.372;2022-08-18T15:17:48;94695.50;;;39.68;18.26
14393;BME280;7281;42.678;23.372;2022-08-18T15:20:20;94702.41;;;39.94;18.22
14393;BME280;7281;42.678;23.372;2022-08-18T15:23:01;94702.25;;;39.76;18.70
14393;BME280;7281;42.678;23.372;2022-08-18T15:25:54;94687.38;;;40.08;18.57
14393;BME280;7281;42.678;23.372;2022-08-18T15:28:23;94700.59;;;40.00;18.21
14393;BME280;7281;42.678;23.372;2022-08-18T15:30:52;94697.34;;;40.45;18.58
14393;BME280;7281;42.678;23.372;2022-08-18T15:33:39;94703.56;;;40.36;19.04
14393;BME280;7281;42.678;23.372;2022-08-18T15:36:07;94697.22;;;40.27;18.62
14393;BME280;7281;42.678;23.372;2022-08-18T15:38:36;94692.66;;;40.64;18.12
14393;BME280;7281;42.678;23.372;2022-08-18T15:41:03;94692.66;;;40.55;18.19
14393;BME280;7281;42.678;23.372;2022-08-18T15:43:35;94686.50;;;40.42;19.20
14393;BME280;7281;42.678;23.372;2022-08-18T15:46:13;94701.88;;;40.08;19.22
14393;BME280;7281;42.678;23.372;2022-08-18T15:48:42;94703.25;;;39.91;18.74
14393;BME280;7281;42.678;23.372;2022-08-18T15:51:09;94692.03;;;39.98;18.63
14393;BME280;7281;42.678;23.372;2022-08-18T15:53:38;94689.44;;;39.52;19.25
14393;BME280;7281;42.678;23.372;2022-08-18T15:56:22;94689.88;;;39.16;18.88
14393;BME280;7281;42.678;23.372;2022-08-18T15:58:51;94677.94;;;39.10;19.32
14393;BME280;7281;42.678;23.372;2022-08-18T16:01:20;94697.91;;;38.98;19.46
14393;BME280;7281;42.678;23.372;2022-08-18T16:03:58;94694.19;;;38.16;20.09
14393;BME280;7281;42.678;23.372;2022-08-18T16:06:27;94679.13;;;38.24;19.94
14393;BME280;7281;42.678;23.372;2022-08-18T16:08:59;94704.03;;;38.14;20.57